Henry Sause — WTW9259 — position and weather

sailwx.info

Track history (hours):
 
Tides and Currents Weather Stations Pressure Air Temp Water Temp Dewpoint Dewpoint Depression Visibility Wind Speed Wind Dir Waves Ship Positions

Henry Sause

Owner: Sause Bros. Inc., COOS BAY, OR. More information available from US FCC via Universal Licensing System and Coast Guard Vessel Documentation Center.

Last reported at 2017-Dec-10 13:04 UTC. Time now 2017-Dec-13 07:15 UTC.
Position N 38°52' W 124°11'.

Type: Towing. MMSI: 367007870.

Date/timePositionNaut miles runAvg speedWind from/ knotsBaromVisibWave heightAir tempDewpointWater temp
2017-Dec-10 13:04N 38°52' W 124°11'1 9.2
2017-Dec-10 12:58N 38°51' W 124°10'4 9.3
2017-Dec-10 12:30N 38°48' W 124°06'22 8.9
2017-Dec-10 10:04N 38°32' W 123°47'1 8.6
2017-Dec-10 10:00N 38°32' W 123°47'4 8.6
2017-Dec-10 09:30N 38°29' W 123°43'4 9.0
2017-Dec-10 09:00N 38°26' W 123°39'5 9.0
2017-Dec-10 08:30N 38°22' W 123°35'5 9.2
2017-Dec-10 08:00N 38°19' W 123°31'5 9.2
2017-Dec-10 07:30N 38°16' W 123°27'5 9.2
2017-Dec-10 07:00N 38°12' W 123°23'4 8.9
2017-Dec-10 06:30N 38°09' W 123°19'5 9.1
2017-Dec-10 06:00N 38°05' W 123°16'5 9.3
2017-Dec-10 05:30N 38°02' W 123°12'5 9.2
2017-Dec-10 05:00N 37°58' W 123°08'5 9.1
2017-Dec-10 04:30N 37°56' W 123°03'5 9.2
2017-Dec-10 04:00N 37°54' W 122°58'5 9.4
2017-Dec-10 03:30N 37°52' W 122°53'5 9.2
2017-Dec-10 02:55N 37°49' W 122°47'4 8.9
2017-Dec-10 02:30N 37°47' W 122°43'4 8.9
2017-Dec-10 02:00N 37°46' W 122°37'510.2
2017-Dec-10 01:30N 37°48' W 122°31'5 9.9
2017-Dec-10 01:00N 37°50' W 122°25'4 8.2
2017-Dec-10 00:30N 37°54' W 122°27'5 8.6
2017-Dec-09 23:58N 37°59' W 122°26'4 8.7
2017-Dec-09 23:30N 38°01' W 122°22'4 8.7
2017-Dec-09 23:00N 38°03' W 122°17'1 2.2
2017-Dec-09 22:30N 38°03' W 122°16'0 0.0
2017-Dec-09 22:00N 38°03' W 122°16'0 0.0
2017-Dec-09 21:30N 38°03' W 122°16'0 0.0
2017-Dec-09 21:00N 38°03' W 122°16'0 0.0
2017-Dec-09 20:30N 38°03' W 122°16'0 0.0
2017-Dec-09 20:00N 38°03' W 122°16'0 0.0
2017-Dec-09 19:30N 38°03' W 122°16'0 0.0
2017-Dec-09 18:55N 38°03' W 122°16'0 0.0
2017-Dec-09 18:25N 38°03' W 122°16'0 0.0
2017-Dec-09 17:55N 38°03' W 122°16'0 0.0
2017-Dec-09 15:19N 38°03' W 122°16'0 0.0
2017-Dec-09 14:55N 38°03' W 122°16'0 0.0
2017-Dec-09 14:25N 38°03' W 122°16'0 0.0
2017-Dec-09 13:55N 38°03' W 122°16'0 0.0
2017-Dec-09 12:43N 38°03' W 122°16'0 0.0
2017-Dec-09 12:25N 38°03' W 122°16'0 0.0
2017-Dec-09 11:49N 38°03' W 122°16'0 0.0
2017-Dec-09 11:25N 38°03' W 122°16'0 0.0
2017-Dec-09 10:55N 38°03' W 122°16'0 0.0
2017-Dec-09 10:25N 38°03' W 122°16'0 0.0
2017-Dec-09 09:49N 38°03' W 122°16'0 0.0
2017-Dec-09 09:25N 38°03' W 122°16'0 0.0
2017-Dec-09 08:43N 38°03' W 122°16'0 0.0
2017-Dec-09 08:25N 38°03' W 122°16'0 0.0
2017-Dec-09 07:55N 38°03' W 122°16'0 0.0
2017-Dec-09 07:25N 38°03' W 122°16'0 0.0
2017-Dec-09 06:49N 38°03' W 122°16'0 0.0
2017-Dec-09 06:25N 38°03' W 122°16'0 0.0
2017-Dec-09 05:49N 38°03' W 122°16'0 0.0
2017-Dec-09 05:13N 38°03' W 122°16'0 0.0
2017-Dec-09 04:49N 38°03' W 122°16'0 0.0
2017-Dec-09 04:25N 38°03' W 122°16'0 0.0
2017-Dec-09 03:55N 38°03' W 122°16'0 0.0
2017-Dec-09 03:13N 38°03' W 122°16'0 0.0
2017-Dec-09 02:55N 38°03' W 122°16'0 0.0
2017-Dec-09 02:25N 38°03' W 122°16'0 0.0
2017-Dec-09 01:55N 38°03' W 122°16'0 0.0
2017-Dec-09 01:13N 38°03' W 122°16'0 0.0
2017-Dec-09 00:55N 38°03' W 122°16'0 0.0
2017-Dec-09 00:25N 38°03' W 122°16'0 0.0
2017-Dec-08 23:55N 38°03' W 122°16'0 0.0
2017-Dec-08 23:25N 38°03' W 122°16'0 0.0
2017-Dec-08 22:55N 38°03' W 122°16'0 0.0
2017-Dec-08 22:19N 38°03' W 122°16'0 0.0
2017-Dec-08 21:55N 38°03' W 122°16'0 0.0
2017-Dec-08 21:25N 38°03' W 122°16'0 0.0
2017-Dec-08 20:55N 38°03' W 122°16'0 0.0
2017-Dec-08 20:19N 38°03' W 122°16'0 0.0
2017-Dec-08 19:55N 38°03' W 122°16'0 0.0
2017-Dec-08 17:13N 38°03' W 122°16'0 0.0
2017-Dec-08 16:55N 38°03' W 122°16'0 0.1
2017-Dec-08 16:25N 38°03' W 122°16'0 0.3
2017-Dec-08 15:50N 38°03' W 122°16'2 5.7
2017-Dec-08 15:30N 38°03' W 122°18'3 5.8
2017-Dec-08 14:58N 38°02' W 122°22'5 6.0
2017-Dec-08 14:09N 37°58' W 122°26'1 6.4
2017-Dec-08 14:00N 37°58' W 122°27'3 5.1
2017-Dec-08 13:30N 37°55' W 122°26'0 0.3
2017-Dec-08 12:46N 37°55' W 122°26'0 0.0
2017-Dec-08 12:25N 37°55' W 122°26'0 0.0
2017-Dec-08 11:51N 37°55' W 122°26'0 0.0
2017-Dec-08 11:27N 37°55' W 122°26'0 0.0
2017-Dec-08 11:00N 37°55' W 122°26'0 0.0
2017-Dec-08 10:30N 37°55' W 122°26'0 0.0
2017-Dec-08 10:00N 37°55' W 122°26'0 0.0
2017-Dec-08 09:30N 37°55' W 122°26'0 0.0
2017-Dec-08 09:00N 37°55' W 122°26'0 0.0
2017-Dec-08 08:30N 37°55' W 122°26'0 0.1
2017-Dec-08 07:57N 37°55' W 122°26'0 0.1
2017-Dec-08 07:30N 37°55' W 122°26'0 0.1
2017-Dec-08 07:00N 37°55' W 122°26'0 0.0
2017-Dec-08 06:30N 37°55' W 122°26'0 0.0
2017-Dec-08 06:00N 37°55' W 122°26'0 0.1
2017-Dec-08 05:30N 37°55' W 122°26'0 0.0
2017-Dec-08 05:00N 37°55' W 122°26'0 0.0
2017-Dec-08 04:30N 37°55' W 122°26'0 0.1
2017-Dec-08 04:00N 37°55' W 122°26'0 0.0
2017-Dec-08 03:30N 37°55' W 122°26'0 0.0
2017-Dec-08 03:00N 37°55' W 122°26'0 0.0
2017-Dec-08 02:30N 37°55' W 122°26'0 0.0
2017-Dec-08 02:00N 37°55' W 122°26'0 0.0
2017-Dec-08 01:30N 37°55' W 122°26'0 0.0
2017-Dec-08 01:00N 37°55' W 122°26'0 0.0
2017-Dec-08 00:30N 37°55' W 122°26'0 0.0
2017-Dec-08 00:00N 37°55' W 122°26'0 0.1
2017-Dec-07 23:30N 37°55' W 122°26'0 0.0
2017-Dec-07 23:00N 37°55' W 122°26'0 0.0
2017-Dec-07 22:30N 37°55' W 122°26'0 0.0
2017-Dec-07 21:59N 37°55' W 122°26'0 0.0
2017-Dec-07 21:30N 37°55' W 122°26'0 0.0
2017-Dec-07 21:00N 37°55' W 122°26'0 0.0
2017-Dec-07 20:30N 37°55' W 122°26'0 0.0
2017-Dec-07 20:00N 37°55' W 122°26'0 0.0
2017-Dec-07 19:30N 37°55' W 122°26'0 0.1
2017-Dec-07 19:00N 37°55' W 122°26'2 4.1
2017-Dec-07 18:30N 37°53' W 122°25'3 6.0
2017-Dec-07 18:00N 37°50' W 122°24'3 6.6
2017-Dec-07 17:30N 37°49' W 122°28'2 4.8
2017-Dec-07 17:00N 37°48' W 122°31'3 5.6
2017-Dec-07 16:30N 37°47' W 122°34'3 5.9
2017-Dec-07 16:00N 37°46' W 122°38'3 6.0
2017-Dec-07 15:30N 37°46' W 122°42'3 5.5
2017-Dec-07 14:59N 37°46' W 122°45'3 5.4
2017-Dec-07 14:30N 37°47' W 122°48'3 5.1
2017-Dec-07 14:00N 37°48' W 122°51'3 5.4
2017-Dec-07 13:30N 37°49' W 122°54'3 5.1
2017-Dec-07 13:00N 37°51' W 122°57'3 5.2
2017-Dec-07 12:30N 37°52' W 122°60'3 5.3
2017-Dec-07 12:00N 37°53' W 123°03'3 5.4
2017-Dec-07 11:30N 37°55' W 123°06'3 5.4
2017-Dec-07 10:56N 37°56' W 123°09'2 5.3
2017-Dec-07 10:30N 37°58' W 123°11'3 5.2
2017-Dec-07 10:00N 37°60' W 123°13'3 5.0
2017-Dec-07 09:29N 38°02' W 123°16'2 5.0
2017-Dec-07 09:00N 38°03' W 123°18'2 4.9
2017-Dec-07 08:30N 38°05' W 123°20'3 5.4
2017-Dec-07 08:00N 38°07' W 123°22'3 5.1
2017-Dec-07 07:30N 38°09' W 123°24'2 4.5
2017-Dec-07 07:00N 38°10' W 123°27'2 4.7
2017-Dec-07 06:30N 38°12' W 123°29'2 4.7
2017-Dec-07 06:00N 38°14' W 123°31'2 4.6
2017-Dec-07 05:30N 38°15' W 123°33'2 4.5
2017-Dec-07 05:00N 38°16' W 123°36'3 5.1
2017-Dec-07 04:30N 38°17' W 123°39'3 5.5
2017-Dec-07 04:00N 38°18' W 123°42'3 6.2
2017-Dec-07 03:30N 38°20' W 123°45'3 6.1
2017-Dec-07 03:00N 38°22' W 123°48'3 6.1
2017-Dec-07 02:30N 38°25' W 123°50'3 6.0
2017-Dec-07 02:00N 38°27' W 123°53'3 5.9
2017-Dec-07 01:30N 38°29' W 123°56'3 5.5
2017-Dec-07 01:00N 38°31' W 123°58'4 5.4
2017-Dec-07 00:15N 38°34' W 124°02'1 5.3
2017-Dec-07 00:00N 38°35' W 124°03'3 5.3
2017-Dec-06 23:30N 38°37' W 124°05'4 5.3
2017-Dec-06 22:44N 38°40' W 124°09'  
2017-Dec-04 10:01N 45°16' W 124°38'0 7.4
2017-Dec-04 09:57N 45°17' W 124°38'4 7.4
2017-Dec-04 09:28N 45°20' W 124°37'5 7.3
2017-Dec-04 08:48N 45°25' W 124°38'2 7.3
2017-Dec-04 08:30N 45°27' W 124°39'5 7.1
2017-Dec-04 07:50N 45°32' W 124°41'2 7.3
2017-Dec-04 07:31N 45°34' W 124°42'4 7.3
2017-Dec-04 07:01N 45°37' W 124°44'4 7.4
2017-Dec-04 06:30N 45°41' W 124°45'3 7.0
2017-Dec-04 06:01N 45°44' W 124°45'3 6.9
2017-Dec-04 05:30N 45°48' W 124°44'4 7.0
2017-Dec-04 04:57N 45°52' W 124°43'3 7.1
2017-Dec-04 04:31N 45°55' W 124°44'4 7.3
2017-Dec-04 04:00N 45°58' W 124°44'4 7.2
2017-Dec-04 03:30N 46°02' W 124°45'4 7.1
2017-Dec-04 03:00N 46°05' W 124°46'4 7.1
2017-Dec-04 02:30N 46°09' W 124°46'3 6.9
2017-Dec-04 02:00N 46°12' W 124°47'3 6.8
2017-Dec-04 01:30N 46°16' W 124°48'3 5.8
2017-Dec-04 01:01N 46°19' W 124°48'3 5.1
2017-Dec-04 00:30N 46°21' W 124°49'3 5.0
2017-Dec-04 00:00N 46°24' W 124°49'3 5.0
2017-Dec-03 23:31N 46°26' W 124°50'3 6.4
2017-Dec-03 23:00N 46°29' W 124°50'6 7.1
2017-Dec-03 22:10N 46°35' W 124°52'1 7.1
2017-Dec-03 22:00N 46°36' W 124°52'4 7.1
2017-Dec-03 21:31N 46°40' W 124°52'3 7.0
2017-Dec-03 21:01N 46°43' W 124°53'4 7.0
2017-Dec-03 20:30N 46°47' W 124°54'91 6.6
2017-Dec-03 06:46N 48°17' W 125°03'2 6.4
2017-Dec-03 06:29N 48°19' W 125°02'4 6.6
2017-Dec-03 05:56N 48°22' W 124°60'3 6.3
2017-Dec-03 05:30N 48°25' W 124°58'3 6.6
2017-Dec-03 05:01N 48°27' W 124°54'3 6.2
2017-Dec-03 04:29N 48°27' W 124°49'3 6.3
2017-Dec-03 04:00N 48°27' W 124°45'3 6.5
2017-Dec-03 03:30N 48°25' W 124°40'5 9.3
2017-Dec-03 03:00N 48°23' W 124°34'5 9.7
2017-Dec-03 02:30N 48°21' W 124°27'5 9.7
2017-Dec-03 02:01N 48°19' W 124°21'5 9.5
2017-Dec-03 01:30N 48°17' W 124°14'5 9.3
2017-Dec-03 01:01N 48°15' W 124°08'5 9.0
2017-Dec-03 00:30N 48°13' W 124°02'8 8.8
2017-Dec-02 23:38N 48°12' W 123°51'1 8.3
2017-Dec-02 23:27N 48°12' W 123°49'4 7.5
2017-Dec-02 22:57N 48°12' W 123°43'3 7.2
2017-Dec-02 22:30N 48°12' W 123°38'3 6.9
2017-Dec-02 22:00N 48°12' W 123°33'3 6.5
2017-Dec-02 21:30N 48°12' W 123°28'3 6.3
2017-Dec-02 21:01N 48°12' W 123°23'3 6.0
2017-Dec-02 20:30N 48°12' W 123°19'3 5.8
2017-Dec-02 20:00N 48°12' W 123°14'3 6.5
2017-Dec-02 19:28N 48°13' W 123°09'26 6.9
2017-Dec-02 15:40N 47°60' W 122°35'2 8.8
2017-Dec-02 15:29N 47°58' W 122°34'4 8.3
2017-Dec-02 15:00N 47°56' W 122°29'4 7.6
2017-Dec-02 14:30N 47°52' W 122°28'4 7.5
2017-Dec-02 14:00N 47°49' W 122°26'4 7.8
2017-Dec-02 13:30N 47°45' W 122°26'4 8.0
2017-Dec-02 13:00N 47°41' W 122°27'4 7.9
2017-Dec-02 12:31N 47°37' W 122°27'4 7.8
2017-Dec-02 12:01N 47°33' W 122°26'4 7.4
2017-Dec-02 11:31N 47°30' W 122°24'4 7.2
2017-Dec-02 11:01N 47°26' W 122°23'4 7.1
2017-Dec-02 10:31N 47°23' W 122°21'4 7.7
2017-Dec-02 10:01N 47°20' W 122°25'3 5.8
2017-Dec-02 09:30N 47°18' W 122°27'1 2.8
2017-Dec-02 09:00N 47°17' W 122°25'1 0.1
2017-Dec-01 16:17N 47°16' W 122°24'0 0.2
2017-Dec-01 15:49N 47°16' W 122°24'1 4.2
2017-Dec-01 15:30N 47°17' W 122°25'1 1.9
2017-Dec-01 15:00N 47°16' W 122°25'0 0.0
2017-Dec-01 14:30N 47°16' W 122°25'0 0.0
2017-Dec-01 14:00N 47°16' W 122°25'0 0.0
2017-Dec-01 13:30N 47°16' W 122°25'0 0.0
2017-Dec-01 13:00N 47°16' W 122°25'0 0.0
2017-Dec-01 12:30N 47°16' W 122°25'0 0.0
2017-Dec-01 12:00N 47°16' W 122°25'0 0.0
2017-Dec-01 11:30N 47°16' W 122°25'0 0.0
2017-Dec-01 11:00N 47°16' W 122°25'0 0.0
2017-Dec-01 10:30N 47°16' W 122°25'0 0.0
2017-Dec-01 10:00N 47°16' W 122°25'0 0.0
2017-Dec-01 09:30N 47°16' W 122°25'0 0.0
2017-Dec-01 09:00N 47°16' W 122°25'0 0.0
2017-Dec-01 08:30N 47°16' W 122°25'0 0.0
2017-Dec-01 08:00N 47°16' W 122°25'0 0.0
2017-Dec-01 07:30N 47°16' W 122°25'0 0.0
2017-Dec-01 07:00N 47°16' W 122°25'0 0.0
2017-Dec-01 06:30N 47°16' W 122°25'0 0.0
2017-Dec-01 06:00N 47°16' W 122°25'0 0.0
2017-Dec-01 05:30N 47°16' W 122°25'0 0.0
2017-Dec-01 05:00N 47°16' W 122°25'0 0.0
2017-Dec-01 04:27N 47°16' W 122°25'0 0.0
2017-Dec-01 04:00N 47°16' W 122°25'0 0.0
2017-Dec-01 03:30N 47°16' W 122°25'0 0.0
2017-Dec-01 03:00N 47°16' W 122°25'0 0.0
2017-Dec-01 02:30N 47°16' W 122°25'0 0.0
2017-Dec-01 02:00N 47°16' W 122°25'0 0.0
2017-Dec-01 01:30N 47°16' W 122°25'0 0.0
2017-Dec-01 01:00N 47°16' W 122°25'0 0.0
2017-Dec-01 00:30N 47°16' W 122°25'0 0.0
2017-Dec-01 00:00N 47°16' W 122°25'0 0.0
2017-Nov-30 23:27N 47°16' W 122°25'0 0.0
2017-Nov-30 23:00N 47°16' W 122°25'0 0.0
2017-Nov-30 22:27N 47°16' W 122°25'0 0.0
2017-Nov-30 19:21N 47°16' W 122°25'0 0.0
2017-Nov-30 18:48N 47°16' W 122°25'0 0.1
2017-Nov-30 18:30N 47°16' W 122°25'0 0.1
2017-Nov-30 18:00N 47°16' W 122°25'0 0.0
2017-Nov-30 17:30N 47°16' W 122°25'0 0.0
2017-Nov-30 16:48N 47°16' W 122°25'0 0.0
2017-Nov-30 16:26N 47°16' W 122°25'0 0.0
2017-Nov-30 15:59N 47°16' W 122°25'0 0.0
2017-Nov-30 15:29N 47°16' W 122°25'0 0.0
2017-Nov-30 14:59N 47°16' W 122°25'0 0.0
2017-Nov-30 14:23N 47°16' W 122°25'0 0.0
2017-Nov-30 13:59N 47°16' W 122°25'0 0.0
2017-Nov-30 13:26N 47°16' W 122°25'  
Track history (hours):
 
Tides and Currents Weather Stations Pressure Air Temp Water Temp Dewpoint Dewpoint Depression Visibility Wind Speed Wind Dir Waves Ship Positions

Henry Sause

Owner: Sause Bros. Inc., COOS BAY, OR. More information available from US FCC via Universal Licensing System and Coast Guard Vessel Documentation Center.

Last reported at 2017-Dec-10 13:04 UTC. Time now 2017-Dec-13 07:15 UTC.
Position N 38°52' W 124°11'.

Type: Towing. MMSI: 367007870.

Date/timePositionNaut miles runAvg speedWind from/ knotsBaromVisibWave heightAir tempDewpointWater temp
2017-Dec-10 13:04N 38°52' W 124°11'1 9.2
2017-Dec-10 12:58N 38°51' W 124°10'4 9.3
2017-Dec-10 12:30N 38°48' W 124°06'22 8.9
2017-Dec-10 10:04N 38°32' W 123°47'1 8.6
2017-Dec-10 10:00N 38°32' W 123°47'4 8.6
2017-Dec-10 09:30N 38°29' W 123°43'4 9.0
2017-Dec-10 09:00N 38°26' W 123°39'5 9.0
2017-Dec-10 08:30N 38°22' W 123°35'5 9.2
2017-Dec-10 08:00N 38°19' W 123°31'5 9.2
2017-Dec-10 07:30N 38°16' W 123°27'5 9.2
2017-Dec-10 07:00N 38°12' W 123°23'4 8.9
2017-Dec-10 06:30N 38°09' W 123°19'5 9.1
2017-Dec-10 06:00N 38°05' W 123°16'5 9.3
2017-Dec-10 05:30N 38°02' W 123°12'5 9.2
2017-Dec-10 05:00N 37°58' W 123°08'5 9.1
2017-Dec-10 04:30N 37°56' W 123°03'5 9.2
2017-Dec-10 04:00N 37°54' W 122°58'5 9.4
2017-Dec-10 03:30N 37°52' W 122°53'5 9.2
2017-Dec-10 02:55N 37°49' W 122°47'4 8.9
2017-Dec-10 02:30N 37°47' W 122°43'4 8.9
2017-Dec-10 02:00N 37°46' W 122°37'510.2
2017-Dec-10 01:30N 37°48' W 122°31'5 9.9
2017-Dec-10 01:00N 37°50' W 122°25'4 8.2
2017-Dec-10 00:30N 37°54' W 122°27'5 8.6
2017-Dec-09 23:58N 37°59' W 122°26'4 8.7
2017-Dec-09 23:30N 38°01' W 122°22'4 8.7
2017-Dec-09 23:00N 38°03' W 122°17'1 2.2
2017-Dec-09 22:30N 38°03' W 122°16'0 0.0
2017-Dec-09 22:00N 38°03' W 122°16'0 0.0
2017-Dec-09 21:30N 38°03' W 122°16'0 0.0
2017-Dec-09 21:00N 38°03' W 122°16'0 0.0
2017-Dec-09 20:30N 38°03' W 122°16'0 0.0
2017-Dec-09 20:00N 38°03' W 122°16'0 0.0
2017-Dec-09 19:30N 38°03' W 122°16'0 0.0
2017-Dec-09 18:55N 38°03' W 122°16'0 0.0
2017-Dec-09 18:25N 38°03' W 122°16'0 0.0
2017-Dec-09 17:55N 38°03' W 122°16'0 0.0
2017-Dec-09 15:19N 38°03' W 122°16'0 0.0
2017-Dec-09 14:55N 38°03' W 122°16'0 0.0
2017-Dec-09 14:25N 38°03' W 122°16'0 0.0
2017-Dec-09 13:55N 38°03' W 122°16'0 0.0
2017-Dec-09 12:43N 38°03' W 122°16'0 0.0
2017-Dec-09 12:25N 38°03' W 122°16'0 0.0
2017-Dec-09 11:49N 38°03' W 122°16'0 0.0
2017-Dec-09 11:25N 38°03' W 122°16'0 0.0
2017-Dec-09 10:55N 38°03' W 122°16'0 0.0
2017-Dec-09 10:25N 38°03' W 122°16'0 0.0
2017-Dec-09 09:49N 38°03' W 122°16'0 0.0
2017-Dec-09 09:25N 38°03' W 122°16'0 0.0
2017-Dec-09 08:43N 38°03' W 122°16'0 0.0
2017-Dec-09 08:25N 38°03' W 122°16'0 0.0
2017-Dec-09 07:55N 38°03' W 122°16'0 0.0
2017-Dec-09 07:25N 38°03' W 122°16'0 0.0
2017-Dec-09 06:49N 38°03' W 122°16'0 0.0
2017-Dec-09 06:25N 38°03' W 122°16'0 0.0
2017-Dec-09 05:49N 38°03' W 122°16'0 0.0
2017-Dec-09 05:13N 38°03' W 122°16'0 0.0
2017-Dec-09 04:49N 38°03' W 122°16'0 0.0
2017-Dec-09 04:25N 38°03' W 122°16'0 0.0
2017-Dec-09 03:55N 38°03' W 122°16'0 0.0
2017-Dec-09 03:13N 38°03' W 122°16'0 0.0
2017-Dec-09 02:55N 38°03' W 122°16'0 0.0
2017-Dec-09 02:25N 38°03' W 122°16'0 0.0
2017-Dec-09 01:55N 38°03' W 122°16'0 0.0
2017-Dec-09 01:13N 38°03' W 122°16'0 0.0
2017-Dec-09 00:55N 38°03' W 122°16'0 0.0
2017-Dec-09 00:25N 38°03' W 122°16'0 0.0
2017-Dec-08 23:55N 38°03' W 122°16'0 0.0
2017-Dec-08 23:25N 38°03' W 122°16'0 0.0
2017-Dec-08 22:55N 38°03' W 122°16'0 0.0
2017-Dec-08 22:19N 38°03' W 122°16'0 0.0
2017-Dec-08 21:55N 38°03' W 122°16'0 0.0
2017-Dec-08 21:25N 38°03' W 122°16'0 0.0
2017-Dec-08 20:55N 38°03' W 122°16'0 0.0
2017-Dec-08 20:19N 38°03' W 122°16'0 0.0
2017-Dec-08 19:55N 38°03' W 122°16'0 0.0
2017-Dec-08 17:13N 38°03' W 122°16'0 0.0
2017-Dec-08 16:55N 38°03' W 122°16'0 0.1
2017-Dec-08 16:25N 38°03' W 122°16'0 0.3
2017-Dec-08 15:50N 38°03' W 122°16'2 5.7
2017-Dec-08 15:30N 38°03' W 122°18'3 5.8
2017-Dec-08 14:58N 38°02' W 122°22'5 6.0
2017-Dec-08 14:09N 37°58' W 122°26'1 6.4
2017-Dec-08 14:00N 37°58' W 122°27'3 5.1
2017-Dec-08 13:30N 37°55' W 122°26'0 0.3
2017-Dec-08 12:46N 37°55' W 122°26'0 0.0
2017-Dec-08 12:25N 37°55' W 122°26'0 0.0
2017-Dec-08 11:51N 37°55' W 122°26'0 0.0
2017-Dec-08 11:27N 37°55' W 122°26'0 0.0
2017-Dec-08 11:00N 37°55' W 122°26'0 0.0
2017-Dec-08 10:30N 37°55' W 122°26'0 0.0
2017-Dec-08 10:00N 37°55' W 122°26'0 0.0
2017-Dec-08 09:30N 37°55' W 122°26'0 0.0
2017-Dec-08 09:00N 37°55' W 122°26'0 0.0
2017-Dec-08 08:30N 37°55' W 122°26'0 0.1
2017-Dec-08 07:57N 37°55' W 122°26'0 0.1
2017-Dec-08 07:30N 37°55' W 122°26'0 0.1
2017-Dec-08 07:00N 37°55' W 122°26'0 0.0
2017-Dec-08 06:30N 37°55' W 122°26'0 0.0
2017-Dec-08 06:00N 37°55' W 122°26'0 0.1
2017-Dec-08 05:30N 37°55' W 122°26'0 0.0
2017-Dec-08 05:00N 37°55' W 122°26'0 0.0
2017-Dec-08 04:30N 37°55' W 122°26'0 0.1
2017-Dec-08 04:00N 37°55' W 122°26'0 0.0
2017-Dec-08 03:30N 37°55' W 122°26'0 0.0
2017-Dec-08 03:00N 37°55' W 122°26'0 0.0
2017-Dec-08 02:30N 37°55' W 122°26'0 0.0
2017-Dec-08 02:00N 37°55' W 122°26'0 0.0
2017-Dec-08 01:30N 37°55' W 122°26'0 0.0
2017-Dec-08 01:00N 37°55' W 122°26'0 0.0
2017-Dec-08 00:30N 37°55' W 122°26'0 0.0
2017-Dec-08 00:00N 37°55' W 122°26'0 0.1
2017-Dec-07 23:30N 37°55' W 122°26'0 0.0
2017-Dec-07 23:00N 37°55' W 122°26'0 0.0
2017-Dec-07 22:30N 37°55' W 122°26'0 0.0
2017-Dec-07 21:59N 37°55' W 122°26'0 0.0
2017-Dec-07 21:30N 37°55' W 122°26'0 0.0
2017-Dec-07 21:00N 37°55' W 122°26'0 0.0
2017-Dec-07 20:30N 37°55' W 122°26'0 0.0
2017-Dec-07 20:00N 37°55' W 122°26'0 0.0
2017-Dec-07 19:30N 37°55' W 122°26'0 0.1
2017-Dec-07 19:00N 37°55' W 122°26'2 4.1
2017-Dec-07 18:30N 37°53' W 122°25'3 6.0
2017-Dec-07 18:00N 37°50' W 122°24'3 6.6
2017-Dec-07 17:30N 37°49' W 122°28'2 4.8
2017-Dec-07 17:00N 37°48' W 122°31'3 5.6
2017-Dec-07 16:30N 37°47' W 122°34'3 5.9
2017-Dec-07 16:00N 37°46' W 122°38'3 6.0
2017-Dec-07 15:30N 37°46' W 122°42'3 5.5
2017-Dec-07 14:59N 37°46' W 122°45'3 5.4
2017-Dec-07 14:30N 37°47' W 122°48'3 5.1
2017-Dec-07 14:00N 37°48' W 122°51'3 5.4
2017-Dec-07 13:30N 37°49' W 122°54'3 5.1
2017-Dec-07 13:00N 37°51' W 122°57'3 5.2
2017-Dec-07 12:30N 37°52' W 122°60'3 5.3
2017-Dec-07 12:00N 37°53' W 123°03'3 5.4
2017-Dec-07 11:30N 37°55' W 123°06'3 5.4
2017-Dec-07 10:56N 37°56' W 123°09'2 5.3
2017-Dec-07 10:30N 37°58' W 123°11'3 5.2
2017-Dec-07 10:00N 37°60' W 123°13'3 5.0
2017-Dec-07 09:29N 38°02' W 123°16'2 5.0
2017-Dec-07 09:00N 38°03' W 123°18'2 4.9
2017-Dec-07 08:30N 38°05' W 123°20'3 5.4
2017-Dec-07 08:00N 38°07' W 123°22'3 5.1
2017-Dec-07 07:30N 38°09' W 123°24'2 4.5
2017-Dec-07 07:00N 38°10' W 123°27'2 4.7
2017-Dec-07 06:30N 38°12' W 123°29'2 4.7
2017-Dec-07 06:00N 38°14' W 123°31'2 4.6
2017-Dec-07 05:30N 38°15' W 123°33'2 4.5
2017-Dec-07 05:00N 38°16' W 123°36'3 5.1
2017-Dec-07 04:30N 38°17' W 123°39'3 5.5
2017-Dec-07 04:00N 38°18' W 123°42'3 6.2
2017-Dec-07 03:30N 38°20' W 123°45'3 6.1
2017-Dec-07 03:00N 38°22' W 123°48'3 6.1
2017-Dec-07 02:30N 38°25' W 123°50'3 6.0
2017-Dec-07 02:00N 38°27' W 123°53'3 5.9
2017-Dec-07 01:30N 38°29' W 123°56'3 5.5
2017-Dec-07 01:00N 38°31' W 123°58'4 5.4
2017-Dec-07 00:15N 38°34' W 124°02'1 5.3
2017-Dec-07 00:00N 38°35' W 124°03'3 5.3
2017-Dec-06 23:30N 38°37' W 124°05'4 5.3
2017-Dec-06 22:44N 38°40' W 124°09'  
2017-Dec-04 10:01N 45°16' W 124°38'0 7.4
2017-Dec-04 09:57N 45°17' W 124°38'4 7.4
2017-Dec-04 09:28N 45°20' W 124°37'5 7.3
2017-Dec-04 08:48N 45°25' W 124°38'2 7.3
2017-Dec-04 08:30N 45°27' W 124°39'5 7.1
2017-Dec-04 07:50N 45°32' W 124°41'2 7.3
2017-Dec-04 07:31N 45°34' W 124°42'4 7.3
2017-Dec-04 07:01N 45°37' W 124°44'4 7.4
2017-Dec-04 06:30N 45°41' W 124°45'3 7.0
2017-Dec-04 06:01N 45°44' W 124°45'3 6.9
2017-Dec-04 05:30N 45°48' W 124°44'4 7.0
2017-Dec-04 04:57N 45°52' W 124°43'3 7.1
2017-Dec-04 04:31N 45°55' W 124°44'4 7.3
2017-Dec-04 04:00N 45°58' W 124°44'4 7.2
2017-Dec-04 03:30N 46°02' W 124°45'4 7.1
2017-Dec-04 03:00N 46°05' W 124°46'4 7.1
2017-Dec-04 02:30N 46°09' W 124°46'3 6.9
2017-Dec-04 02:00N 46°12' W 124°47'3 6.8
2017-Dec-04 01:30N 46°16' W 124°48'3 5.8
2017-Dec-04 01:01N 46°19' W 124°48'3 5.1
2017-Dec-04 00:30N 46°21' W 124°49'3 5.0
2017-Dec-04 00:00N 46°24' W 124°49'3 5.0
2017-Dec-03 23:31N 46°26' W 124°50'3 6.4
2017-Dec-03 23:00N 46°29' W 124°50'6 7.1
2017-Dec-03 22:10N 46°35' W 124°52'1 7.1
2017-Dec-03 22:00N 46°36' W 124°52'4 7.1
2017-Dec-03 21:31N 46°40' W 124°52'3 7.0
2017-Dec-03 21:01N 46°43' W 124°53'4 7.0
2017-Dec-03 20:30N 46°47' W 124°54'91 6.6
2017-Dec-03 06:46N 48°17' W 125°03'2 6.4
2017-Dec-03 06:29N 48°19' W 125°02'4 6.6
2017-Dec-03 05:56N 48°22' W 124°60'3 6.3
2017-Dec-03 05:30N 48°25' W 124°58'3 6.6
2017-Dec-03 05:01N 48°27' W 124°54'3 6.2
2017-Dec-03 04:29N 48°27' W 124°49'3 6.3
2017-Dec-03 04:00N 48°27' W 124°45'3 6.5
2017-Dec-03 03:30N 48°25' W 124°40'5 9.3
2017-Dec-03 03:00N 48°23' W 124°34'5 9.7
2017-Dec-03 02:30N 48°21' W 124°27'5 9.7
2017-Dec-03 02:01N 48°19' W 124°21'5 9.5
2017-Dec-03 01:30N 48°17' W 124°14'5 9.3
2017-Dec-03 01:01N 48°15' W 124°08'5 9.0
2017-Dec-03 00:30N 48°13' W 124°02'8 8.8
2017-Dec-02 23:38N 48°12' W 123°51'1 8.3
2017-Dec-02 23:27N 48°12' W 123°49'4 7.5
2017-Dec-02 22:57N 48°12' W 123°43'3 7.2
2017-Dec-02 22:30N 48°12' W 123°38'3 6.9
2017-Dec-02 22:00N 48°12' W 123°33'3 6.5
2017-Dec-02 21:30N 48°12' W 123°28'3 6.3
2017-Dec-02 21:01N 48°12' W 123°23'3 6.0
2017-Dec-02 20:30N 48°12' W 123°19'3 5.8
2017-Dec-02 20:00N 48°12' W 123°14'3 6.5
2017-Dec-02 19:28N 48°13' W 123°09'26 6.9
2017-Dec-02 15:40N 47°60' W 122°35'2 8.8
2017-Dec-02 15:29N 47°58' W 122°34'4 8.3
2017-Dec-02 15:00N 47°56' W 122°29'4 7.6
2017-Dec-02 14:30N 47°52' W 122°28'4 7.5
2017-Dec-02 14:00N 47°49' W 122°26'4 7.8
2017-Dec-02 13:30N 47°45' W 122°26'4 8.0
2017-Dec-02 13:00N 47°41' W 122°27'4 7.9
2017-Dec-02 12:31N 47°37' W 122°27'4 7.8
2017-Dec-02 12:01N 47°33' W 122°26'4 7.4
2017-Dec-02 11:31N 47°30' W 122°24'4 7.2
2017-Dec-02 11:01N 47°26' W 122°23'4 7.1
2017-Dec-02 10:31N 47°23' W 122°21'4 7.7
2017-Dec-02 10:01N 47°20' W 122°25'3 5.8
2017-Dec-02 09:30N 47°18' W 122°27'1 2.8
2017-Dec-02 09:00N 47°17' W 122°25'1 0.1
2017-Dec-01 16:17N 47°16' W 122°24'0 0.2
2017-Dec-01 15:49N 47°16' W 122°24'1 4.2
2017-Dec-01 15:30N 47°17' W 122°25'1 1.9
2017-Dec-01 15:00N 47°16' W 122°25'0 0.0
2017-Dec-01 14:30N 47°16' W 122°25'0 0.0
2017-Dec-01 14:00N 47°16' W 122°25'0 0.0
2017-Dec-01 13:30N 47°16' W 122°25'0 0.0
2017-Dec-01 13:00N 47°16' W 122°25'0 0.0
2017-Dec-01 12:30N 47°16' W 122°25'0 0.0
2017-Dec-01 12:00N 47°16' W 122°25'0 0.0
2017-Dec-01 11:30N 47°16' W 122°25'0 0.0
2017-Dec-01 11:00N 47°16' W 122°25'0 0.0
2017-Dec-01 10:30N 47°16' W 122°25'0 0.0
2017-Dec-01 10:00N 47°16' W 122°25'0 0.0
2017-Dec-01 09:30N 47°16' W 122°25'0 0.0
2017-Dec-01 09:00N 47°16' W 122°25'0 0.0
2017-Dec-01 08:30N 47°16' W 122°25'0 0.0
2017-Dec-01 08:00N 47°16' W 122°25'0 0.0
2017-Dec-01 07:30N 47°16' W 122°25'0 0.0
2017-Dec-01 07:00N 47°16' W 122°25'0 0.0
2017-Dec-01 06:30N 47°16' W 122°25'0 0.0
2017-Dec-01 06:00N 47°16' W 122°25'0 0.0
2017-Dec-01 05:30N 47°16' W 122°25'0 0.0
2017-Dec-01 05:00N 47°16' W 122°25'0 0.0
2017-Dec-01 04:27N 47°16' W 122°25'0 0.0
2017-Dec-01 04:00N 47°16' W 122°25'0 0.0
2017-Dec-01 03:30N 47°16' W 122°25'0 0.0
2017-Dec-01 03:00N 47°16' W 122°25'0 0.0
2017-Dec-01 02:30N 47°16' W 122°25'0 0.0
2017-Dec-01 02:00N 47°16' W 122°25'0 0.0
2017-Dec-01 01:30N 47°16' W 122°25'0 0.0
2017-Dec-01 01:00N 47°16' W 122°25'0 0.0
2017-Dec-01 00:30N 47°16' W 122°25'0 0.0
2017-Dec-01 00:00N 47°16' W 122°25'0 0.0
2017-Nov-30 23:27N 47°16' W 122°25'0 0.0
2017-Nov-30 23:00N 47°16' W 122°25'0 0.0
2017-Nov-30 22:27N 47°16' W 122°25'0 0.0
2017-Nov-30 19:21N 47°16' W 122°25'0 0.0
2017-Nov-30 18:48N 47°16' W 122°25'0 0.1
2017-Nov-30 18:30N 47°16' W 122°25'0 0.1
2017-Nov-30 18:00N 47°16' W 122°25'0 0.0
2017-Nov-30 17:30N 47°16' W 122°25'0 0.0
2017-Nov-30 16:48N 47°16' W 122°25'0 0.0
2017-Nov-30 16:26N 47°16' W 122°25'0 0.0
2017-Nov-30 15:59N 47°16' W 122°25'0 0.0
2017-Nov-30 15:29N 47°16' W 122°25'0 0.0
2017-Nov-30 14:59N 47°16' W 122°25'0 0.0
2017-Nov-30 14:23N 47°16' W 122°25'0 0.0
2017-Nov-30 13:59N 47°16' W 122°25'0 0.0
2017-Nov-30 13:26N 47°16' W 122°25'  

Dump ship's entire track history